Time;durP1;ratioP1;P1;durP2;ratioP2;P2;SDS_P1;SDS_P2;PMS_P1;PMS_P2;Temp;Humidity;BMP_temperature;BMP_pressure;BME280_temperature;BME280_humidity;BME280_pressure;Samples;Min_cycle;Max_cycle;Signal;HPM_P1;HPM_P2
2021/12/04 00:02:09;;;;;;;19.52;12.80;;;;;;;-1.46;71.67;98993.08;1785579;80;21533;-40
2021/12/04 00:04:47;;;;;;;21.37;13.32;;;;;;;-1.50;71.68;98994.73;1785615;80;21549;-40
2021/12/04 00:07:11;;;;;;;18.02;12.80;;;;;;;-1.49;71.65;98986.99;1785119;80;21144;-40
2021/12/04 00:09:38;;;;;;;19.02;12.28;;;;;;;-1.51;71.57;99005.91;1785461;80;21011;-40
2021/12/04 00:12:08;;;;;;;17.37;12.20;;;;;;;-1.49;71.49;99005.60;1785497;80;21019;-40
2021/12/04 00:14:36;;;;;;;19.70;13.58;;;;;;;-1.49;71.39;99006.39;1785762;80;22039;-40
2021/12/04 00:17:04;;;;;;;18.20;9.45;;;;;;;-1.45;71.25;99009.25;1790244;80;21083;-40
2021/12/04 00:19:31;;;;;;;18.32;13.43;;;;;;;-1.46;71.10;99007.70;1794312;80;21896;-41
2021/12/04 00:21:58;;;;;;;20.20;13.28;;;;;;;-1.91;70.93;98934.75;1794630;80;21018;-40
2021/12/04 00:24:24;;;;;;;20.23;12.58;;;;;;;-1.45;70.79;99007.39;1794304;80;21015;-41
2021/12/04 00:26:52;;;;;;;19.60;13.13;;;;;;;-1.47;70.81;99010.89;1794630;79;20956;-41
2021/12/04 00:29:19;;;;;;;18.25;12.23;;;;;;;-1.46;70.84;99005.84;1794385;80;20992;-40
2021/12/04 00:31:51;;;;;;;19.37;11.68;;;;;;;-1.44;70.82;99011.64;1794888;80;21737;-41
2021/12/04 00:34:21;;;;;;;17.73;12.75;;;;;;;-1.49;70.97;99017.56;1783667;79;21482;-41
2021/12/04 00:50:14;;;;;;;19.32;12.28;;;;;;;-1.52;70.88;99016.82;1794710;80;21035;-41
2021/12/04 00:52:42;;;;;;;19.40;12.40;;;;;;;-1.57;70.86;99015.03;1794508;80;21023;-40
2021/12/04 00:55:08;;;;;;;19.05;12.15;;;;;;;-1.61;70.90;99014.03;1794175;80;21044;-40
2021/12/04 00:57:38;;;;;;;20.02;12.65;;;;;;;-1.64;71.00;99015.13;1794304;79;21132;-40
2021/12/04 01:00:07;;;;;;;16.85;11.57;;;;;;;-1.63;71.01;99017.50;1794108;80;21010;-40
2021/12/04 01:02:34;;;;;;;16.87;11.55;;;;;;;-1.60;70.95;99013.50;1794898;80;21530;-40
2021/12/04 01:05:01;;;;;;;17.32;11.68;;;;;;;-1.60;70.96;99013.50;1794388;80;21898;-40
2021/12/04 01:07:28;;;;;;;18.75;11.90;;;;;;;-1.58;71.04;99019.30;1794319;80;21075;-40
2021/12/04 01:09:55;;;;;;;20.68;12.50;;;;;;;-1.59;71.08;99018.50;1794318;80;21136;-41
2021/12/04 01:12:21;;;;;;;20.97;13.15;;;;;;;-1.53;71.05;99016.03;1794456;80;21023;-41
2021/12/04 01:14:48;;;;;;;21.05;12.98;;;;;;;-1.52;70.93;99012.30;1794471;80;21032;-41
2021/12/04 01:17:15;;;;;;;18.95;12.85;;;;;;;-1.49;70.82;99018.89;1789956;80;21820;-41
2021/12/04 01:19:42;;;;;;;22.80;13.60;;;;;;;-1.49;70.82;99021.02;1785490;80;21079;-41
2021/12/04 01:22:09;;;;;;;23.83;13.53;;;;;;;-1.46;70.59;99023.11;1785407;80;21116;-40
2021/12/04 01:24:35;;;;;;;20.62;11.83;;;;;;;-1.47;70.60;99024.19;1754939;80;20980;-41
2021/12/04 01:27:02;;;;;;;19.52;12.75;;;;;;;-1.46;70.39;99023.11;1785369;80;21036;-41
2021/12/04 01:29:29;;;;;;;18.73;12.35;;;;;;;-1.50;70.39;99028.73;1785463;80;21234;-41
2021/12/04 01:31:55;;;;;;;18.12;12.88;;;;;;;-1.48;70.43;99029.25;1785292;80;21507;-41
2021/12/04 01:34:22;;;;;;;23.15;11.68;;;;;;;-1.45;70.29;99028.66;1785418;80;21498;-40
2021/12/04 01:36:49;;;;;;;21.35;12.73;;;;;;;-1.42;70.03;99036.08;1785431;80;20979;-40
2021/12/04 01:39:15;;;;;;;19.12;12.82;;;;;;;-1.45;69.92;99035.30;1785435;80;21063;-40
2021/12/04 01:41:42;;;;;;;16.62;11.90;;;;;;;-1.48;69.95;99035.89;1785582;80;21008;-40
2021/12/04 01:44:09;;;;;;;17.62;12.25;;;;;;;-1.45;69.90;99039.30;1785835;80;21056;-40
2021/12/04 01:46:36;;;;;;;17.52;11.33;;;;;;;-1.42;69.93;99041.93;1785683;80;21822;-41
2021/12/04 01:49:03;;;;;;;18.00;12.28;;;;;;;-1.38;69.80;99046.38;1785686;80;21056;-40
2021/12/04 01:51:29;;;;;;;19.12;11.00;;;;;;;-1.41;69.85;99046.97;1785485;80;21546;-40
2021/12/04 01:53:56;;;;;;;16.52;11.43;;;;;;;-1.39;69.68;99045.33;1785742;80;21036;-40
2021/12/04 01:56:22;;;;;;;18.40;11.60;;;;;;;-1.46;69.65;99050.23;1785577;80;21000;-40
2021/12/04 01:58:48;;;;;;;17.62;11.90;;;;;;;-1.52;69.71;99049.52;1785913;80;21745;-40
2021/12/04 02:01:16;;;;;;;20.97;12.68;;;;;;;-1.60;69.83;99057.34;1785435;80;21019;-40
2021/12/04 02:03:42;;;;;;;18.73;12.00;;;;;;;-1.65;70.04;99047.58;1785597;80;21017;-40
2021/12/04 02:06:09;;;;;;;20.17;12.23;;;;;;;-1.67;70.26;99052.38;1785438;80;20993;-40
2021/12/04 02:08:35;;;;;;;22.40;12.85;;;;;;;-1.64;70.33;99053.66;1785870;80;21530;-40
2021/12/04 02:11:01;;;;;;;18.70;12.23;;;;;;;-1.60;70.28;99058.67;1785477;80;21060;-40
2021/12/04 02:13:28;;;;;;;18.45;12.37;;;;;;;-1.58;70.11;99064.48;1785616;80;21494;-41
2021/12/04 02:15:56;;;;;;;19.10;11.97;;;;;;;-1.56;70.06;99061.01;1784792;80;21095;-40
2021/12/04 02:18:23;;;;;;;18.02;11.97;;;;;;;-1.58;70.08;99063.94;1790768;80;21515;-40
2021/12/04 02:20:50;;;;;;;18.65;12.10;;;;;;;-1.59;69.91;99061.03;1792108;80;21043;-40
2021/12/04 02:23:18;;;;;;;21.30;12.70;;;;;;;-1.60;70.14;99068.77;1791964;80;20928;-40
2021/12/04 02:25:44;;;;;;;17.27;11.95;;;;;;;-1.54;69.99;99066.28;1792056;80;20991;-40
2021/12/04 02:28:11;;;;;;;16.80;11.65;;;;;;;-1.52;69.90;99065.46;1792343;80;20964;-40
2021/12/04 02:30:40;;;;;;;20.32;11.95;;;;;;;-1.44;69.84;99068.80;1784857;80;21079;-40
2021/12/04 02:33:16;;;;;;;14.30;10.30;;;;;;;-1.43;69.56;99061.61;1761361;81;21004;-40
2021/12/04 02:35:35;;;;;;;17.12;11.20;;;;;;;-1.45;69.41;99069.86;1759119;81;21136;-40
2021/12/04 02:38:01;;;;;;;16.15;9.80;;;;;;;-1.48;69.38;99071.78;1760927;81;21027;-40
2021/12/04 02:40:28;;;;;;;18.10;10.30;;;;;;;-1.53;69.38;99069.19;1760783;81;20940;-40
2021/12/04 02:42:55;;;;;;;14.60;10.23;;;;;;;-1.55;69.39;99068.67;1760785;81;21024;-41
2021/12/04 02:45:22;;;;;;;17.10;10.00;;;;;;;-1.64;69.55;99062.42;1760838;81;21020;-45
2021/12/04 02:47:48;;;;;;;16.85;10.63;;;;;;;-1.71;69.65;99066.53;1761265;81;21510;-41
2021/12/04 02:50:17;;;;;;;18.32;11.08;;;;;;;-1.81;69.94;99064.79;1760698;81;21011;-41
2021/12/04 02:52:44;;;;;;;15.43;10.13;;;;;;;-1.82;70.18;99064.00;1760722;81;20952;-40
2021/12/04 02:55:10;;;;;;;17.90;10.53;;;;;;;-1.81;70.25;99059.48;1760689;81;21071;-40
2021/12/04 02:57:43;;;;;;;16.05;10.70;;;;;;;-1.78;70.24;99061.55;1760807;81;21569;-40
2021/12/04 03:00:06;;;;;;;18.62;11.05;;;;;;;-1.78;70.23;99062.34;1760389;81;21826;-40
2021/12/04 03:02:33;;;;;;;16.80;10.28;;;;;;;-1.75;70.17;99063.66;1761005;81;20979;-40
2021/12/04 03:05:02;;;;;;;16.75;10.30;;;;;;;-1.73;70.09;99066.00;1760650;81;21079;-40
2021/12/04 03:07:28;;;;;;;16.97;10.38;;;;;;;-1.74;70.20;99070.53;1760803;81;21467;-40
2021/12/04 03:09:55;;;;;;;19.57;10.90;;;;;;;-1.70;70.00;99065.45;1760481;81;21083;-40
2021/12/04 03:12:23;;;;;;;18.30;11.12;;;;;;;-1.74;70.10;99067.11;1760673;81;21565;-40
2021/12/04 03:14:52;;;;;;;19.23;10.93;;;;;;;-1.73;70.05;99068.12;1760520;81;21015;-40
2021/12/04 03:17:20;;;;;;;18.98;11.20;;;;;;;-1.79;70.11;99066.61;1759367;81;20988;-40
2021/12/04 03:19:49;;;;;;;17.37;10.93;;;;;;;-1.81;70.13;99064.26;1755044;80;21011;-40
2021/12/04 03:22:16;;;;;;;16.48;10.10;;;;;;;-1.82;70.26;99061.88;1754245;81;21077;-40
2021/12/04 03:24:43;;;;;;;20.15;11.48;;;;;;;-1.86;70.30;99059.00;1754395;81;21601;-40
2021/12/04 03:27:11;;;;;;;20.27;10.50;;;;;;;-1.88;70.36;99068.32;1754262;81;21084;-40
2021/12/04 03:29:42;;;;;;;16.35;10.35;;;;;;;-1.93;70.55;99064.39;1754355;81;21597;-40
2021/12/04 03:40:21;;;;;;;16.05;10.65;;;;;;;-1.98;70.78;99065.25;1785500;80;21487;-40
2021/12/04 03:42:40;;;;;;;15.70;10.38;;;;;;;-1.90;70.66;99067.83;1783023;80;21577;-40
2021/12/04 03:45:09;;;;;;;22.58;11.30;;;;;;;-1.88;70.45;99065.66;1785680;80;20988;-40
2021/12/04 03:47:40;;;;;;;17.42;10.28;;;;;;;-1.90;70.49;99069.95;1785809;80;21052;-40
2021/12/04 03:50:07;;;;;;;17.73;11.33;;;;;;;-1.90;70.38;99073.14;1784945;80;21142;-40
2021/12/04 03:52:36;;;;;;;17.42;10.55;;;;;;;-1.91;70.37;99075.54;1785490;80;21617;-40
2021/12/04 03:55:05;;;;;;;18.07;10.23;;;;;;;-1.90;70.27;99083.23;1785507;80;21873;-40
2021/12/04 03:57:32;;;;;;;17.82;10.48;;;;;;;-1.88;70.20;99088.24;1785562;80;21654;-40
2021/12/04 04:00:02;;;;;;;16.00;10.32;;;;;;;-1.84;69.98;99087.39;1785303;80;21000;-40
2021/12/04 04:02:31;;;;;;;17.23;10.53;;;;;;;-1.80;69.81;99090.30;1783933;80;21915;-40
2021/12/04 04:04:58;;;;;;;17.82;10.95;;;;;;;-1.73;69.68;99092.58;1785351;80;21012;-40
2021/12/04 04:07:24;;;;;;;17.77;10.20;;;;;;;-1.68;69.56;99095.97;1780477;80;21051;-41
2021/12/04 04:09:51;;;;;;;19.70;10.32;;;;;;;-1.62;69.30;99094.84;1785278;80;20952;-40
2021/12/04 04:12:18;;;;;;;14.15;9.65;;;;;;;-1.61;68.94;99092.97;1785464;80;21019;-40
2021/12/04 04:14:44;;;;;;;19.82;10.35;;;;;;;-1.65;68.92;99086.12;1785586;80;21527;-40
2021/12/04 04:17:11;;;;;;;18.32;11.20;;;;;;;-1.65;68.81;99094.09;1785848;80;21248;-41
2021/12/04 04:19:38;;;;;;;15.08;10.23;;;;;;;-1.69;68.76;99091.72;1792057;80;20968;-40
2021/12/04 04:22:05;;;;;;;18.00;11.00;;;;;;;-1.73;68.72;99090.72;1791816;80;21047;-40
2021/12/04 04:24:32;;;;;;;17.40;11.38;;;;;;;-1.76;68.68;99087.31;1792049;80;21063;-40
2021/12/04 04:27:00;;;;;;;18.45;11.05;;;;;;;-1.81;68.86;99088.70;1792009;80;21526;-41
2021/12/04 04:29:26;;;;;;;16.80;10.48;;;;;;;-1.84;68.87;99086.63;1791803;80;21085;-41
2021/12/04 04:31:55;;;;;;;17.27;11.38;;;;;;;-1.91;68.97;99094.14;1791885;80;21277;-40
2021/12/04 04:34:34;;;;;;;17.10;10.75;;;;;;;-1.95;69.14;99096.58;1791867;80;21530;-48
2021/12/04 04:57:22;;;;;;;16.32;10.78;;;;;;;-1.99;69.21;99093.45;1791885;80;21174;-41
2021/12/04 05:12:11;;;;;;;20.65;12.13;;;;;;;-2.20;69.69;99094.99;1791895;80;21019;-41
2021/12/04 05:14:26;;;;;;;19.23;10.50;;;;;;;-2.22;69.58;99102.44;1788713;80;21578;-40
2021/12/04 05:16:59;;;;;;;17.98;11.03;;;;;;;-2.28;69.74;99098.27;1791728;80;21043;-40
2021/12/04 05:19:38;;;;;;;15.05;8.03;;;;;;;-2.34;69.91;99107.89;1784576;80;21131;-40
2021/12/04 05:21:54;;;;;;;19.48;11.75;;;;;;;-2.36;69.95;99114.80;1788902;80;22142;-40
2021/12/04 05:24:22;;;;;;;21.90;10.90;;;;;;;-2.42;70.14;99123.87;1792245;80;21011;-40
2021/12/04 05:26:49;;;;;;;16.27;9.88;;;;;;;-2.38;70.01;99126.25;1791838;80;20998;-40
2021/12/04 05:29:16;;;;;;;20.90;11.70;;;;;;;-2.36;69.86;99130.73;1792454;80;21546;-40
2021/12/04 05:33:45;;;;;;;16.95;10.25;;;;;;;-2.26;69.49;99121.34;1769029;79;23842;-40
2021/12/04 05:36:11;;;;;;;20.55;11.63;;;;;;;-2.33;69.54;99129.39;1746341;82;21019;-40
2021/12/04 05:38:38;;;;;;;18.40;10.70;;;;;;;-2.33;69.54;99124.87;1746422;81;21130;-39
2021/12/04 05:41:05;;;;;;;17.10;11.12;;;;;;;-2.26;69.38;99129.30;1746340;82;20940;-40
2021/12/04 05:43:31;;;;;;;17.15;10.50;;;;;;;-2.26;69.25;99141.25;1746330;82;21540;-40
2021/12/04 05:46:04;;;;;;;17.12;10.75;;;;;;;-2.25;69.05;99147.36;1746428;82;21029;-39
2021/12/04 05:51:35;;;;;;;16.25;10.75;;;;;;;-2.23;68.92;99145.98;1746396;82;21101;-39
2021/12/04 05:56:24;;;;;;;17.52;10.90;;;;;;;-2.14;68.80;99154.69;1746419;82;21035;-40
2021/12/04 05:58:51;;;;;;;17.82;11.00;;;;;;;-2.07;68.75;99150.62;1746183;82;20995;-40
2021/12/04 06:01:19;;;;;;;17.42;10.38;;;;;;;-1.93;68.60;99156.05;1746240;82;21105;-40
2021/12/04 06:03:46;;;;;;;20.20;12.20;;;;;;;-1.82;68.23;99150.88;1746171;82;21644;-40
2021/12/04 06:06:14;;;;;;;18.37;11.22;;;;;;;-1.78;68.10;99147.37;1746262;82;20992;-40
2021/12/04 06:08:41;;;;;;;22.37;11.65;;;;;;;-1.65;67.76;99150.44;1746293;82;21046;-40
2021/12/04 06:11:09;;;;;;;15.30;10.98;;;;;;;-1.58;67.47;99152.19;1746386;82;21058;-40
2021/12/04 06:13:35;;;;;;;18.15;11.25;;;;;;;-1.48;67.17;99151.53;1746321;82;21058;-40
2021/12/04 06:16:02;;;;;;;16.45;10.72;;;;;;;-1.35;67.02;99152.69;1746531;82;21050;-40
2021/12/04 06:18:28;;;;;;;18.62;10.95;;;;;;;-1.23;66.76;99152.28;1746353;82;21014;-40
2021/12/04 06:23:40;;;;;;;17.87;10.50;;;;;;;-1.16;65.94;99148.17;1746387;82;21038;-40
2021/12/04 06:26:07;;;;;;;17.77;11.25;;;;;;;-1.21;65.59;99142.92;1746599;82;21549;-40
2021/12/04 06:28:34;;;;;;;18.73;11.63;;;;;;;-1.24;65.51;99146.70;1746308;82;21137;-40
2021/12/04 06:31:01;;;;;;;16.80;11.15;;;;;;;-1.29;65.43;99145.44;1750697;80;21530;-40
2021/12/04 06:33:28;;;;;;;17.70;11.63;;;;;;;-1.37;65.65;99141.56;1746990;81;21092;-40
2021/12/04 06:35:56;;;;;;;18.45;11.15;;;;;;;-1.52;66.09;99145.75;1744090;82;21081;-40
2021/12/04 06:38:22;;;;;;;18.40;11.60;;;;;;;-1.63;66.58;99146.94;1744119;82;20990;-40
2021/12/04 06:40:49;;;;;;;20.97;13.48;;;;;;;-1.69;67.03;99156.07;1744000;82;21184;-40
2021/12/04 06:43:16;;;;;;;20.90;11.65;;;;;;;-1.70;67.32;99153.95;1744011;82;20957;-42
2021/12/04 06:45:45;;;;;;;21.65;13.18;;;;;;;-1.69;67.44;99156.07;1743366;80;20925;-40
2021/12/04 06:48:17;;;;;;;23.07;14.53;;;;;;;-1.76;67.67;99159.85;1735255;82;21076;-40
2021/12/04 06:50:44;;;;;;;24.52;15.72;;;;;;;-1.76;67.86;99159.06;1734879;82;20994;-40
2021/12/04 06:53:20;;;;;;;24.37;12.40;;;;;;;-1.78;68.15;99153.22;1734555;82;21488;-40
2021/12/04 06:55:42;;;;;;;21.42;13.80;;;;;;;-1.77;68.34;99156.94;1733974;82;21485;-40
2021/12/04 06:58:07;;;;;;;22.98;14.05;;;;;;;-1.81;68.64;99162.56;1734703;82;21477;-40
2021/12/04 07:03:00;;;;;;;40.20;23.10;;;;;;;-1.73;69.00;99178.95;1810359;78;22762;-39
2021/12/04 07:05:27;;;;;;;28.47;17.12;;;;;;;-1.69;69.05;99174.67;1787695;80;20931;-39
2021/12/04 07:07:54;;;;;;;23.75;13.35;;;;;;;-1.63;69.09;99173.52;1787619;80;21134;-39
2021/12/04 07:10:22;;;;;;;23.57;14.55;;;;;;;-1.56;69.07;99173.45;1787508;80;21009;-39
2021/12/04 07:12:49;;;;;;;25.88;15.60;;;;;;;-1.49;68.90;99171.75;1787666;80;20982;-39
2021/12/04 07:15:15;;;;;;;21.87;12.68;;;;;;;-1.44;68.92;99169.83;1787534;80;21062;-39
2021/12/04 07:17:44;;;;;;;28.92;18.00;;;;;;;-1.37;68.81;99179.59;1787569;80;20994;-39
2021/12/04 07:20:11;;;;;;;22.35;13.22;;;;;;;-1.37;69.00;99180.91;1787439;80;21134;-39
2021/12/04 07:22:37;;;;;;;20.40;13.10;;;;;;;-1.32;69.00;99174.20;1787799;79;20962;-39
2021/12/04 07:25:05;;;;;;;30.00;21.52;;;;;;;-1.27;68.99;99172.02;1787495;80;21006;-39
2021/12/04 07:27:32;;;;;;;33.98;22.82;;;;;;;-1.21;68.93;99174.84;1787513;80;21042;-39
2021/12/04 07:30:00;;;;;;;31.10;19.48;;;;;;;-1.20;68.97;99178.29;1787603;79;21592;-39
2021/12/04 07:32:26;;;;;;;37.83;23.77;;;;;;;-1.15;69.04;99183.55;1804423;79;21131;-39
2021/12/04 07:34:53;;;;;;;39.35;24.50;;;;;;;-1.09;69.03;99190.39;1804953;79;21075;-40
2021/12/04 07:37:21;;;;;;;31.15;19.70;;;;;;;-1.00;69.18;99189.45;1804905;79;20997;-47
2021/12/04 07:39:50;;;;;;;85.12;43.65;;;;;;;-0.92;68.98;99185.37;1738955;82;21528;-39
2021/12/04 07:42:17;;;;;;;70.03;40.98;;;;;;;-0.83;68.97;99192.16;1739034;82;21049;-47
2021/12/04 07:44:43;;;;;;;43.90;26.30;;;;;;;-0.70;68.87;99188.23;1738729;82;21167;-40
2021/12/04 07:47:10;;;;;;;91.75;54.70;;;;;;;-0.64;68.35;99179.09;1738910;82;21017;-39
2021/12/04 07:49:38;;;;;;;39.90;26.02;;;;;;;-0.48;68.08;99196.39;1738555;82;20993;-39
2021/12/04 07:52:08;;;;;;;29.67;19.98;;;;;;;-0.37;68.08;99197.02;1738860;82;21010;-39
2021/12/04 07:54:35;;;;;;;41.02;25.77;;;;;;;-0.26;67.47;99192.33;1738617;82;21042;-39
2021/12/04 07:57:03;;;;;;;26.00;16.48;;;;;;;-0.18;67.64;99192.97;1738883;82;21754;-40
2021/12/04 07:59:29;;;;;;;24.45;17.30;;;;;;;-0.02;67.13;99195.63;1738386;82;21029;-40
2021/12/04 08:01:57;;;;;;;22.10;14.85;;;;;;;0.06;66.86;99202.15;1734144;82;21532;-40
2021/12/04 08:04:24;;;;;;;23.75;14.95;;;;;;;0.13;66.45;99205.23;1755965;81;20985;-40
2021/12/04 08:06:52;;;;;;;21.80;14.35;;;;;;;0.16;66.17;99199.30;1755875;81;21048;-40
2021/12/04 08:09:19;;;;;;;24.60;14.15;;;;;;;0.18;66.01;99207.27;1793680;80;21122;-40
2021/12/04 08:11:46;;;;;;;23.92;14.80;;;;;;;0.29;66.51;99207.30;1793990;78;21541;-40
2021/12/04 08:14:12;;;;;;;26.20;15.83;;;;;;;0.39;66.26;99209.78;1727932;83;21005;-40
2021/12/04 08:16:40;;;;;;;21.25;14.13;;;;;;;0.47;65.81;99210.19;1755155;81;21013;-40
2021/12/04 08:19:06;;;;;;;24.60;15.78;;;;;;;0.52;65.57;99204.77;1793092;80;21038;-40
2021/12/04 08:21:34;;;;;;;27.05;15.68;;;;;;;0.59;65.70;99202.47;1792995;80;21175;-40
2021/12/04 08:24:03;;;;;;;22.42;14.53;;;;;;;0.72;65.49;99193.14;1792908;80;21728;-41
2021/12/04 08:26:30;;;;;;;22.27;14.30;;;;;;;0.82;65.60;99200.15;1793512;80;20950;-41
2021/12/04 08:28:56;;;;;;;23.62;14.47;;;;;;;1.01;65.36;99199.47;1799888;79;21469;-41
2021/12/04 08:31:23;;;;;;;201.18;105.92;;;;;;;1.15;64.78;99193.55;1785597;79;21041;-40
2021/12/04 08:33:50;;;;;;;82.15;47.93;;;;;;;1.20;64.36;99192.10;1769009;81;21081;-40
2021/12/04 08:36:17;;;;;;;94.92;55.73;;;;;;;1.25;64.31;99187.98;1769205;81;20910;-40
2021/12/04 08:38:47;;;;;;;35.03;21.95;;;;;;;1.35;64.13;99192.30;1768889;81;20952;-40
2021/12/04 08:41:14;;;;;;;33.42;20.40;;;;;;;1.46;63.92;99188.82;1768620;80;21676;-40
2021/12/04 08:43:43;;;;;;;35.20;24.23;;;;;;;1.61;63.67;99189.80;1768792;81;21487;-40
2021/12/04 08:46:10;;;;;;;27.05;17.30;;;;;;;1.76;63.26;99185.42;1768732;81;21138;-41
2021/12/04 08:48:37;;;;;;;35.25;21.48;;;;;;;1.92;62.68;99171.92;1768708;81;20937;-40
2021/12/04 08:51:04;;;;;;;25.02;16.65;;;;;;;1.99;62.08;99176.81;1769099;81;21562;-40
2021/12/04 08:53:31;;;;;;;32.45;22.50;;;;;;;1.95;62.04;99169.95;1768784;81;21000;-41
2021/12/04 08:55:57;;;;;;;35.00;23.15;;;;;;;1.96;61.84;99161.39;1768882;81;20989;-40
2021/12/04 08:58:24;;;;;;;28.30;18.87;;;;;;;1.97;61.84;99159.77;1768828;81;21082;-41
2021/12/04 09:00:56;;;;;;;28.25;18.40;;;;;;;2.01;61.94;99162.05;1768923;81;21582;-40
2021/12/04 09:03:36;;;;;;;27.58;17.52;;;;;;;2.00;62.27;99153.78;1768911;80;20922;-40
2021/12/04 09:06:03;;;;;;;35.08;22.32;;;;;;;2.04;62.00;99152.06;1769218;81;20949;-41
2021/12/04 09:08:31;;;;;;;30.75;20.27;;;;;;;2.05;62.06;99143.50;1768841;81;21029;-40
2021/12/04 09:11:01;;;;;;;35.98;24.90;;;;;;;2.10;62.44;99150.05;1769114;81;21097;-41
2021/12/04 09:13:30;;;;;;;24.82;15.88;;;;;;;2.24;61.93;99143.26;1768981;80;20980;-41
2021/12/04 09:15:57;;;;;;;29.32;18.42;;;;;;;2.30;61.40;99143.36;1769137;81;20977;-40
2021/12/04 09:18:25;;;;;;;23.00;16.55;;;;;;;2.34;61.64;99133.62;1768836;81;20973;-40
2021/12/04 09:20:53;;;;;;;27.42;16.52;;;;;;;2.43;61.81;99125.06;1769007;81;21036;-40
2021/12/04 09:23:21;;;;;;;22.27;15.70;;;;;;;2.53;61.39;99127.45;1769087;81;21122;-40
2021/12/04 09:25:52;;;;;;;26.50;18.30;;;;;;;2.58;61.31;99120.61;1774023;80;21012;-41
2021/12/04 09:28:37;;;;;;;26.80;16.73;;;;;;;2.68;61.43;99120.31;1768781;80;21013;-41
2021/12/04 10:01:13;;;;;;;26.80;17.73;;;;;;;3.71;58.66;99112.22;1804573;79;21112;-40
2021/12/04 10:11:10;;;;;;;54.60;35.52;;;;;;;4.00;58.42;99113.38;1804404;79;21001;-40
2021/12/04 10:22:30;;;;;;;23.18;14.87;;;;;;;4.64;56.03;99096.00;1746123;81;21075;-41
2021/12/04 10:33:43;;;;;;;22.15;15.58;;;;;;;4.72;55.73;99088.98;1804506;79;20993;-41
2021/12/04 10:36:11;;;;;;;21.85;15.28;;;;;;;4.73;55.85;99085.19;1805100;79;21028;-47
2021/12/04 10:38:41;;;;;;;23.40;14.28;;;;;;;4.86;55.50;99088.72;1804672;79;20988;-40
2021/12/04 10:41:07;;;;;;;20.43;14.50;;;;;;;5.00;55.53;99090.58;1802068;79;21571;-40
2021/12/04 10:43:35;;;;;;;21.87;15.63;;;;;;;5.16;54.92;99088.31;1804641;79;21134;-41
2021/12/04 10:46:16;;;;;;;23.20;14.78;;;;;;;5.31;54.29;99086.13;1804958;79;21029;-40
2021/12/04 10:48:51;;;;;;;24.07;14.98;;;;;;;5.35;54.44;99081.66;1804634;79;20969;-40
2021/12/04 10:53:51;;;;;;;23.42;15.85;;;;;;;5.56;53.85;99080.50;1804635;79;21460;-40
2021/12/04 11:37:05;;;;;;;22.05;15.25;;;;;;;7.24;49.03;99027.89;1804812;79;21149;-40
2021/12/04 11:44:34;;;;;;;21.02;14.33;;;;;;;7.31;48.75;99028.86;1804771;79;21500;-40
2021/12/04 11:46:57;;;;;;;23.40;16.90;;;;;;;7.34;48.51;99025.48;1804157;79;21002;-40
2021/12/04 11:49:28;;;;;;;19.75;14.18;;;;;;;7.46;48.53;99027.31;1804630;79;21141;-40
2021/12/04 11:52:00;;;;;;;21.15;14.38;;;;;;;7.59;48.24;99025.34;1803839;79;21001;-40
2021/12/04 11:54:31;;;;;;;20.00;14.03;;;;;;;7.66;47.98;99020.10;1804929;79;21008;-40
2021/12/04 11:57:07;;;;;;;21.07;14.05;;;;;;;7.68;48.17;99017.85;1804623;79;21065;-40
2021/12/04 11:59:38;;;;;;;17.67;12.78;;;;;;;7.59;47.12;99019.94;1804909;79;20961;-41
2021/12/04 12:02:08;;;;;;;22.10;14.25;;;;;;;7.37;47.99;99015.91;1804753;79;21107;-40
2021/12/04 12:04:51;;;;;;;23.15;14.70;;;;;;;7.29;48.17;99013.60;1797469;79;20953;-40
2021/12/04 12:07:24;;;;;;;20.85;13.32;;;;;;;7.16;48.34;99010.77;1797515;79;21026;-41
2021/12/04 12:10:12;;;;;;;64.75;39.05;;;;;;;6.86;48.87;99006.84;1797587;79;20989;-41
2021/12/04 12:12:42;;;;;;;18.82;10.75;;;;;;;6.52;49.57;99008.98;1775636;79;21049;-41
2021/12/04 12:15:32;;;;;;;18.98;13.45;;;;;;;6.16;50.53;99005.55;1797638;79;21041;-41
2021/12/04 12:18:19;;;;;;;22.93;15.35;;;;;;;5.85;51.17;99008.81;1797525;79;21004;-41
2021/12/04 12:20:53;;;;;;;21.40;13.93;;;;;;;5.50;52.09;99010.57;1797453;79;21548;-41
2021/12/04 12:23:19;;;;;;;22.35;14.68;;;;;;;5.15;53.07;99006.12;1796311;79;20997;-40
2021/12/04 12:26:01;;;;;;;22.25;13.28;;;;;;;4.88;53.61;99008.61;1797290;79;21014;-40
2021/12/04 12:36:29;;;;;;;23.95;14.23;;;;;;;3.98;56.11;99016.35;1797413;79;20986;-41
2021/12/04 12:39:13;;;;;;;25.32;14.63;;;;;;;3.88;56.66;99007.56;1797509;79;21068;-41
2021/12/04 12:41:45;;;;;;;26.52;14.68;;;;;;;3.81;57.02;99006.52;1797421;79;21174;-40
2021/12/04 12:44:30;;;;;;;32.38;19.50;;;;;;;3.72;57.33;99002.54;1797512;79;21012;-40
2021/12/04 12:47:04;;;;;;;25.92;17.17;;;;;;;3.67;57.28;99002.72;1797556;79;21210;-41
2021/12/04 12:49:36;;;;;;;20.40;13.13;;;;;;;3.57;57.51;98996.38;1797409;79;20954;-41
2021/12/04 12:52:15;;;;;;;23.42;12.40;;;;;;;3.45;57.90;98994.91;1797459;79;20982;-40
2021/12/04 12:55:04;;;;;;;22.77;15.55;;;;;;;3.38;58.37;98995.42;1797474;79;21133;-40
2021/12/04 12:57:36;;;;;;;21.42;13.93;;;;;;;3.31;58.74;98994.33;1796056;79;21033;-40
2021/12/04 13:11:48;;;;;;;20.68;12.50;;;;;;;3.11;59.55;98984.30;1766365;81;20972;-40
2021/12/04 13:14:45;;;;;;;19.67;12.88;;;;;;;3.09;59.78;98982.51;1766432;81;21480;-40
2021/12/04 13:17:23;;;;;;;19.25;12.33;;;;;;;3.08;59.87;98987.63;1766417;81;21036;-40
2021/12/04 13:19:54;;;;;;;21.35;11.83;;;;;;;3.02;60.14;98986.45;1766504;81;21539;-40
2021/12/04 13:22:25;;;;;;;25.43;12.90;;;;;;;3.03;60.20;98978.66;1766359;81;21087;-40
2021/12/04 13:24:55;;;;;;;19.87;12.47;;;;;;;3.02;60.30;98973.06;1766131;81;20957;-40
2021/12/04 13:29:59;;;;;;;18.62;12.60;;;;;;;3.06;60.29;98971.31;1766571;81;21520;-40
2021/12/04 13:32:32;;;;;;;23.32;13.55;;;;;;;3.08;60.40;98971.55;1772804;79;21103;-40
2021/12/04 13:35:20;;;;;;;25.02;13.88;;;;;;;3.05;60.18;98970.28;1772763;81;21873;-41
2021/12/04 13:37:53;;;;;;;18.60;12.65;;;;;;;3.04;60.16;98978.11;1772876;81;20999;-40
2021/12/04 13:40:20;;;;;;;20.43;13.28;;;;;;;2.96;60.39;98968.97;1772905;80;20987;-41
2021/12/04 13:42:48;;;;;;;21.30;12.78;;;;;;;2.90;60.52;98971.61;1772813;81;21535;-40
2021/12/04 13:45:17;;;;;;;24.27;13.75;;;;;;;2.89;60.54;98971.36;1772845;81;21016;-40
2021/12/04 13:47:46;;;;;;;17.55;10.03;;;;;;;2.91;60.62;98971.03;1772860;80;21784;-40
2021/12/04 13:53:20;;;;;;;20.05;13.58;;;;;;;2.87;60.79;98964.74;1772628;81;20960;-40
2021/12/04 13:55:56;;;;;;;24.37;14.30;;;;;;;2.82;60.92;98971.59;1772907;81;21550;-40
2021/12/04 13:58:22;;;;;;;23.25;15.08;;;;;;;2.76;61.07;98971.55;1771829;80;21036;-40
2021/12/04 14:00:51;;;;;;;23.47;15.80;;;;;;;2.69;61.16;98976.58;1772764;80;21012;-40
2021/12/04 14:03:23;;;;;;;25.48;15.00;;;;;;;2.64;61.29;98973.52;1772813;80;20905;-41
2021/12/04 14:05:51;;;;;;;29.60;16.00;;;;;;;2.62;61.36;98970.36;1773275;80;20944;-40
2021/12/04 14:08:17;;;;;;;29.67;16.67;;;;;;;2.59;61.38;98973.68;1773283;80;21016;-40
2021/12/04 14:10:45;;;;;;;26.77;16.60;;;;;;;2.54;61.43;98971.95;1773453;80;21013;-40
2021/12/04 14:13:16;;;;;;;26.00;16.35;;;;;;;2.51;61.48;98971.25;1773172;80;21098;-40
2021/12/04 14:15:44;;;;;;;26.45;17.55;;;;;;;2.48;61.54;98969.73;1773325;80;21015;-40
2021/12/04 14:18:17;;;;;;;24.57;16.95;;;;;;;2.46;61.57;98971.96;1773163;80;21024;-40
2021/12/04 14:20:49;;;;;;;34.13;17.62;;;;;;;2.45;61.54;98975.73;1773364;80;21549;-40
2021/12/04 14:23:16;;;;;;;27.77;16.17;;;;;;;2.43;61.59;98967.22;1773338;80;21479;-40
2021/12/04 14:25:44;;;;;;;27.75;16.90;;;;;;;2.39;61.65;98964.94;1773235;80;21116;-40
2021/12/04 14:28:16;;;;;;;31.15;16.95;;;;;;;2.34;61.76;98971.78;1773208;80;21034;-40
2021/12/04 14:30:44;;;;;;;26.25;15.80;;;;;;;2.33;61.76;98976.89;1781268;79;21539;-40
2021/12/04 14:33:15;;;;;;;26.55;16.30;;;;;;;2.26;61.85;98970.69;1802607;79;21017;-40
2021/12/04 14:35:46;;;;;;;32.67;18.00;;;;;;;2.22;61.89;98975.64;1802743;79;21057;-40
2021/12/04 14:38:16;;;;;;;25.37;16.80;;;;;;;2.16;61.98;98977.13;1802701;79;21062;-40
2021/12/04 14:40:49;;;;;;;31.15;18.02;;;;;;;2.14;62.03;98972.64;1794300;79;21869;-40
2021/12/04 14:43:18;;;;;;;30.08;20.25;;;;;;;2.11;62.04;98973.82;1785400;80;21045;-54